DYL weather

Doylestown Airport
Doylestown, Pennsylvania, United States

Public forecast

Using degrees Fahrenheit for public forecast. Weather courtesy of forecast.io.

Current aviation weather report (METAR) for Doylestown Airport

Retrieved 2020/01/17 22:54 UTC (50 minutes ago):

KDYL 172254Z AUTO 33007KT 10SM CLR M04/M17 A3068 RMK AO2 SLP399 T10391167

Closest aviation forecast (TAF) to Doylestown Airport

Closest forecast is Trenton Mercer Airport, 14.5 nm (26.9 km) ESE. Retrieved 2020/01/17 18:42 UTC (5 hours ago):

TAF KTTN 171739Z 1718/1818 34012G22KT P6SM SKC FM172300 33007KT P6SM SCT200 FM180800 VRB02KT P6SM SCT200 FM181500 VRB04KT P6SM -SN OVC090 FM181700 17005KT 4SM -SN OVC040